createdAt,value
2023-05-19T00:01:12.538Z,100008.00
2023-05-19T00:03:54.167Z,100017.38
2023-05-19T00:06:31.993Z,100007.97
2023-05-19T00:09:05.607Z,100019.91
2023-05-19T00:11:42.401Z,100009.16
2023-05-19T00:14:18.579Z,100009.81
2023-05-19T00:16:49.116Z,100009.50
2023-05-19T00:19:19.268Z,100015.94
2023-05-19T00:21:48.994Z,100025.81
2023-05-19T00:24:20.504Z,100022.13
2023-05-19T00:26:50.160Z,100021.03
2023-05-19T00:29:27.805Z,100020.91
2023-05-19T00:32:00.287Z,100015.97
2023-05-19T00:34:30.090Z,100021.22
2023-05-19T00:37:03.014Z,100020.19
2023-05-19T00:39:43.421Z,100020.50
2023-05-19T00:42:13.352Z,100014.72
2023-05-19T00:44:52.809Z,100021.41
2023-05-19T00:47:22.771Z,100011.44
2023-05-19T00:49:56.267Z,100019.44
2023-05-19T00:52:29.292Z,100019.97
2023-05-19T00:54:58.963Z,100005.28
2023-05-19T00:57:28.785Z,100008.28
2023-05-19T00:59:58.625Z,100018.91
2023-05-19T01:02:31.310Z,100018.09
2023-05-19T01:05:03.062Z,100008.50
2023-05-19T01:07:33.229Z,100017.25
2023-05-19T01:10:06.457Z,100013.34
2023-05-19T01:12:36.703Z,100012.50
2023-05-19T01:15:07.148Z,100002.09
2023-05-19T01:18:16.816Z,100003.88
2023-05-19T01:21:00.919Z,100007.75
2023-05-19T01:23:30.654Z,100003.19
2023-05-19T01:26:17.648Z,99991.66
2023-05-19T01:29:14.179Z,99996.91
2023-05-19T01:31:45.051Z,99999.00
2023-05-19T01:34:18.137Z,100009.47
2023-05-19T01:36:54.009Z,100012.66
2023-05-19T01:39:25.379Z,100017.53
2023-05-19T01:41:55.217Z,100003.22
2023-05-19T01:44:30.224Z,100000.09
2023-05-19T01:46:59.976Z,100004.59
2023-05-19T01:49:35.477Z,100001.75
2023-05-19T01:52:05.447Z,100004.78
2023-05-19T01:54:35.444Z,100010.47
2023-05-19T01:57:49.992Z,99998.56
2023-05-19T02:00:44.160Z,99985.13
2023-05-19T02:03:28.853Z,99980.91
2023-05-19T02:06:03.929Z,99990.34
2023-05-19T02:08:33.473Z,99987.31
2023-05-19T02:11:11.509Z,99990.00
2023-05-19T02:13:46.480Z,99997.03
2023-05-19T02:16:18.849Z,100006.13
2023-05-19T02:18:49.646Z,99989.34
2023-05-19T02:21:19.409Z,99981.25
2023-05-19T02:23:49.940Z,99981.94
2023-05-19T02:26:19.744Z,99973.19
2023-05-19T02:28:53.352Z,99987.31
2023-05-19T02:31:23.083Z,99981.59
2023-05-19T02:33:52.791Z,99980.09
2023-05-19T02:36:27.623Z,99979.75
2023-05-19T02:39:06.577Z,99985.59
2023-05-19T02:41:43.114Z,99980.06
2023-05-19T02:44:15.890Z,99967.13
2023-05-19T02:46:48.960Z,99974.38
2023-05-19T02:49:25.249Z,99966.59
2023-05-19T02:51:55.709Z,99962.09
2023-05-19T02:54:28.624Z,99957.75
2023-05-19T02:57:01.644Z,99951.50
2023-05-19T02:59:31.583Z,99952.00
2023-05-19T03:02:08.710Z,99950.31
2023-05-19T03:04:43.181Z,99955.03
2023-05-19T03:07:12.624Z,99960.94
2023-05-19T03:09:56.204Z,99947.81
2023-05-19T03:12:42.303Z,99951.50
2023-05-19T03:15:14.728Z,99939.53
2023-05-19T03:17:47.419Z,99949.94
2023-05-19T03:20:19.925Z,99952.13
2023-05-19T03:22:49.883Z,99939.91
2023-05-19T03:25:22.758Z,99951.16
2023-05-19T03:28:01.281Z,99943.72
2023-05-19T03:30:34.343Z,99938.03
2023-05-19T03:33:07.394Z,99933.19
2023-05-19T03:35:40.918Z,99928.31
2023-05-19T03:38:10.590Z,99917.34
2023-05-19T03:40:54.793Z,99917.16
2023-05-19T03:43:30.644Z,99935.00
2023-05-19T03:46:00.732Z,99930.13
2023-05-19T03:48:32.745Z,99929.75
2023-05-19T03:51:05.979Z,99921.88
2023-05-19T03:53:35.821Z,99929.78
2023-05-19T03:56:08.297Z,99918.50
2023-05-19T03:58:41.096Z,99928.94
2023-05-19T04:01:10.944Z,99914.59
2023-05-19T04:03:43.614Z,99925.72
2023-05-19T04:06:14.482Z,99927.75
2023-05-19T04:08:45.861Z,99919.69
2023-05-19T04:11:15.742Z,99930.09
2023-05-19T04:13:46.247Z,99928.44
2023-05-19T04:16:18.939Z,99927.94
2023-05-19T04:18:48.689Z,99928.09
2023-05-19T04:21:18.509Z,99938.50
2023-05-19T04:23:48.331Z,99933.06
2023-05-19T04:26:20.979Z,99932.69
2023-05-19T04:28:51.059Z,99923.38
2023-05-19T04:31:24.567Z,99930.75
2023-05-19T04:33:55.097Z,99933.94
2023-05-19T04:36:25.615Z,99929.25
2023-05-19T04:38:56.707Z,99924.03
2023-05-19T04:41:26.370Z,99927.63
2023-05-19T04:43:56.187Z,99931.50
2023-05-19T04:46:27.643Z,99928.50
2023-05-19T04:48:58.706Z,99927.50
2023-05-19T04:51:32.552Z,99924.44
2023-05-19T04:54:03.114Z,99922.72
2023-05-19T04:56:32.902Z,99930.75
2023-05-19T04:59:02.909Z,99936.13
2023-05-19T05:01:34.585Z,99922.41
2023-05-19T05:04:07.200Z,99926.09
2023-05-19T05:06:39.960Z,99925.41
2023-05-19T05:09:09.683Z,99925.88
2023-05-19T05:11:39.823Z,99924.19
2023-05-19T05:14:09.858Z,99914.03
2023-05-19T05:16:40.016Z,99919.94
2023-05-19T05:19:12.247Z,99925.00
2023-05-19T05:21:43.060Z,99912.56
2023-05-19T05:24:13.741Z,99918.94
2023-05-19T05:26:47.555Z,99914.91
2023-05-19T05:29:17.359Z,99919.88
2023-05-19T05:31:56.029Z,99907.25
2023-05-19T05:34:25.781Z,99907.59
2023-05-19T05:36:55.564Z,99913.25
2023-05-19T05:39:25.254Z,99920.16
2023-05-19T05:41:54.920Z,99916.97
2023-05-19T05:44:24.620Z,99918.09
2023-05-19T05:46:57.441Z,99912.38
2023-05-19T05:49:27.463Z,99917.00
2023-05-19T05:54:33.453Z,99912.22
2023-05-19T05:57:07.069Z,99903.25
2023-05-19T05:59:39.672Z,99907.25
2023-05-19T06:02:11.810Z,99904.75
2023-05-19T06:04:45.213Z,99890.78
2023-05-19T06:07:24.216Z,99897.91
2023-05-19T06:09:54.040Z,99886.81
2023-05-19T06:12:24.618Z,99886.00
2023-05-19T06:14:54.432Z,99871.75
2023-05-19T06:17:24.144Z,99878.47
2023-05-19T06:19:53.899Z,99874.75
2023-05-19T06:22:32.920Z,99871.22
2023-05-19T06:25:02.643Z,99866.00
2023-05-19T06:27:44.763Z,99861.78
2023-05-19T06:30:15.789Z,99861.50
2023-05-19T06:32:45.800Z,99858.81
2023-05-19T06:35:15.653Z,99859.13
2023-05-19T06:37:48.069Z,99862.16
2023-05-19T06:40:17.847Z,99862.13
2023-05-19T06:42:47.600Z,99864.66
2023-05-19T06:45:17.467Z,99856.22
2023-05-19T06:47:47.236Z,99850.84
2023-05-19T06:50:17.240Z,99848.66
2023-05-19T06:52:48.583Z,99844.13
2023-05-19T06:55:18.450Z,99842.81
2023-05-19T06:57:51.066Z,99842.13
2023-05-19T07:00:24.597Z,99846.13
2023-05-19T07:02:54.745Z,99846.81
2023-05-19T07:05:24.765Z,99836.75
2023-05-19T07:07:56.858Z,99834.06
2023-05-19T07:10:36.691Z,99826.50
2023-05-19T07:13:06.562Z,99834.06
2023-05-19T07:15:42.605Z,99816.94
2023-05-19T07:18:12.555Z,99826.00
2023-05-19T07:20:42.411Z,99827.34
2023-05-19T07:23:16.048Z,99825.16
2023-05-19T07:25:47.184Z,99828.50
2023-05-19T07:28:22.087Z,99818.63
2023-05-19T07:30:54.840Z,99818.97
2023-05-19T07:33:24.711Z,99816.28
2023-05-19T07:35:56.993Z,99814.78
2023-05-19T07:38:35.996Z,99813.94
2023-05-19T07:41:06.358Z,99811.09
2023-05-19T07:43:39.665Z,99803.50
2023-05-19T07:46:13.780Z,99806.06
2023-05-19T07:48:45.597Z,99804.19
2023-05-19T07:51:16.157Z,99796.31
2023-05-19T07:53:48.243Z,99790.09
2023-05-19T07:56:20.666Z,99791.59
2023-05-19T07:58:50.401Z,99786.22
2023-05-19T08:01:23.023Z,99792.41
2023-05-19T08:03:55.752Z,99802.00
2023-05-19T08:06:26.833Z,99794.25
2023-05-19T08:08:59.174Z,99800.59
2023-05-19T08:11:28.914Z,99799.06
2023-05-19T08:13:59.019Z,99809.81
2023-05-19T08:16:36.557Z,99804.63
2023-05-19T08:19:08.428Z,99804.09
2023-05-19T08:21:38.589Z,99812.50
2023-05-19T08:24:08.548Z,99815.03
2023-05-19T08:26:38.384Z,99810.13
2023-05-19T08:29:08.062Z,99819.66
2023-05-19T08:31:38.178Z,99812.72
2023-05-19T08:34:11.223Z,99820.47
2023-05-19T08:36:42.360Z,99827.00
2023-05-19T08:39:15.299Z,99833.88
2023-05-19T08:41:45.009Z,99832.69
2023-05-19T08:44:16.107Z,99816.06
2023-05-19T08:46:46.888Z,99821.09
2023-05-19T08:49:18.349Z,99824.28
2023-05-19T08:51:53.231Z,99838.38
2023-05-19T08:54:24.043Z,99827.16
2023-05-19T08:56:54.020Z,99832.34
2023-05-19T08:59:27.220Z,99828.97
2023-05-19T09:01:57.104Z,99814.69
2023-05-19T09:04:30.329Z,99812.00
2023-05-19T09:09:33.956Z,99825.94
2023-05-19T09:12:03.756Z,99830.50
2023-05-19T09:14:33.663Z,99829.31
2023-05-19T09:17:04.198Z,99832.84
2023-05-19T09:19:34.562Z,99838.22
2023-05-19T09:22:08.273Z,99839.75
2023-05-19T09:24:38.030Z,99837.19
2023-05-19T09:27:07.861Z,99840.72
2023-05-19T09:29:37.547Z,99860.06
2023-05-19T09:32:07.692Z,99868.47
2023-05-19T09:34:37.660Z,99861.28
2023-05-19T09:37:07.584Z,99861.09
2023-05-19T09:39:37.368Z,99862.59
2023-05-19T09:42:08.639Z,99859.91
2023-05-19T09:44:40.920Z,99872.50
2023-05-19T09:47:15.807Z,99876.88
2023-05-19T09:49:49.429Z,99870.81
2023-05-19T09:52:19.778Z,99872.97
2023-05-19T09:54:52.841Z,99870.47
2023-05-19T09:57:30.988Z,99872.81
2023-05-19T10:00:01.253Z,99870.97
2023-05-19T10:02:31.276Z,99872.97
2023-05-19T10:05:01.125Z,99872.16
2023-05-19T10:07:30.996Z,99875.56
2023-05-19T10:10:00.821Z,99869.81
2023-05-19T10:12:30.618Z,99876.06
2023-05-19T10:15:00.935Z,99876.22
2023-05-19T10:17:30.832Z,99877.88
2023-05-19T10:20:01.337Z,99883.25
2023-05-19T10:22:37.138Z,99883.63
2023-05-19T10:25:07.775Z,99888.19
2023-05-19T10:27:47.728Z,99893.06
2023-05-19T10:30:22.922Z,99897.25
2023-05-19T10:32:53.618Z,99902.13
2023-05-19T10:35:32.802Z,99902.63
2023-05-19T10:38:30.286Z,99902.63
2023-05-19T10:41:09.955Z,99906.69
2023-05-19T10:43:58.339Z,99918.28
2023-05-19T10:46:34.924Z,99918.28
2023-05-19T10:49:04.637Z,99931.25
2023-05-19T10:51:34.757Z,99936.47
2023-05-19T10:54:05.562Z,99947.25
2023-05-19T10:56:37.579Z,99950.47
2023-05-19T10:59:07.467Z,99945.91
2023-05-19T11:01:39.858Z,99952.47
2023-05-19T11:04:15.512Z,99950.31
2023-05-19T11:06:53.464Z,99952.47
2023-05-19T11:09:34.163Z,99963.06
2023-05-19T11:12:07.599Z,99961.56
2023-05-19T11:14:51.591Z,99954.00
2023-05-19T11:17:25.311Z,99954.84
2023-05-19T11:19:57.408Z,99963.75
2023-05-19T11:22:31.096Z,99965.44
2023-05-19T11:25:05.515Z,99958.88
2023-05-19T11:27:54.353Z,99973.00
2023-05-19T11:30:24.035Z,99976.72
2023-05-19T11:32:55.134Z,99980.25
2023-05-19T11:35:25.878Z,99991.16
2023-05-19T11:37:56.767Z,99993.34
2023-05-19T11:40:37.013Z,100011.81
2023-05-19T11:43:06.685Z,100009.31
2023-05-19T11:45:57.380Z,100021.75
2023-05-19T11:48:42.778Z,100027.13
2023-05-19T11:51:12.481Z,100026.63
2023-05-19T11:53:42.228Z,100022.94
2023-05-19T11:56:12.611Z,100028.47
2023-05-19T11:59:05.156Z,100027.81
2023-05-19T12:01:36.097Z,100039.09
2023-05-19T12:04:15.467Z,100039.41
2023-05-19T12:06:45.261Z,100034.38
2023-05-19T12:09:14.976Z,100035.72
2023-05-19T12:11:47.357Z,100041.41
2023-05-19T12:14:17.540Z,100034.69
2023-05-19T12:16:49.948Z,100047.31
2023-05-19T12:19:22.604Z,100052.03
2023-05-19T12:21:53.199Z,100046.81
2023-05-19T12:24:38.501Z,100048.00
2023-05-19T12:27:24.677Z,100051.69
2023-05-19T12:29:55.510Z,100054.22
2023-05-19T12:32:31.108Z,100045.97
2023-05-19T12:35:01.894Z,100047.13
2023-05-19T12:37:31.760Z,100051.69
2023-05-19T12:40:02.160Z,100046.47
2023-05-19T12:42:39.809Z,100058.91
2023-05-19T12:45:10.039Z,100068.31
2023-05-19T12:47:42.407Z,100063.28
2023-05-19T12:50:33.213Z,100058.75
2023-05-19T12:53:03.094Z,100059.94
2023-05-19T12:55:33.097Z,100053.53
2023-05-19T12:58:15.359Z,100058.75
2023-05-19T13:00:49.477Z,100072.38
2023-05-19T13:03:21.244Z,100062.63
2023-05-19T13:05:52.554Z,100063.28
2023-05-19T13:08:23.609Z,100060.44
2023-05-19T13:10:53.335Z,100071.84
2023-05-19T13:13:23.577Z,100069.03
2023-05-19T13:15:53.670Z,100075.38
2023-05-19T13:18:23.345Z,100078.75
2023-05-19T13:20:54.629Z,100071.72
2023-05-19T13:23:27.854Z,100073.88
2023-05-19T13:26:00.216Z,100070.38
2023-05-19T13:28:29.996Z,100060.59
2023-05-19T13:30:59.800Z,100064.97
2023-05-19T13:33:29.825Z,100067.00
2023-05-19T13:35:59.513Z,100068.00
2023-05-19T13:38:31.907Z,100052.00
2023-05-19T13:41:01.695Z,100052.53
2023-05-19T13:43:34.268Z,100055.22
2023-05-19T13:46:04.066Z,100053.53
2023-05-19T13:48:33.793Z,100051.19
2023-05-19T13:51:04.043Z,100052.19
2023-05-19T13:53:39.141Z,100051.50
2023-05-19T13:56:23.975Z,100062.59
2023-05-19T13:58:54.509Z,100052.69
2023-05-19T14:01:24.176Z,100053.53
2023-05-19T14:03:54.062Z,100057.06
2023-05-19T14:06:23.854Z,100056.72
2023-05-19T14:08:53.542Z,100058.88
2023-05-19T14:11:28.877Z,100051.84
2023-05-19T14:13:58.997Z,100040.56
2023-05-19T14:16:30.218Z,100050.66
2023-05-19T14:19:00.439Z,100034.69
2023-05-19T14:21:30.109Z,100028.31
2023-05-19T14:23:59.847Z,100018.56
2023-05-19T14:26:29.796Z,100025.63
2023-05-19T14:28:59.677Z,100018.56
2023-05-19T14:31:29.736Z,100023.94
2023-05-19T14:33:59.792Z,100022.06
2023-05-19T14:36:29.462Z,100023.28
2023-05-19T14:38:59.164Z,100014.53
2023-05-19T14:41:30.520Z,100022.44
2023-05-19T14:44:00.198Z,100035.03
2023-05-19T14:46:29.852Z,100027.13
2023-05-19T14:48:59.523Z,100026.63
2023-05-19T14:51:32.036Z,100037.72
2023-05-19T14:54:02.763Z,100017.06
2023-05-19T14:56:32.626Z,100023.59
2023-05-19T14:59:02.379Z,100026.97
2023-05-19T15:01:32.687Z,100016.03
2023-05-19T15:04:05.456Z,100023.94
2023-05-19T15:06:58.195Z,100031.84
2023-05-19T15:09:38.727Z,100040.75
2023-05-19T15:12:08.947Z,100037.38
2023-05-19T15:14:38.622Z,100046.59
2023-05-19T15:17:08.479Z,100037.03
2023-05-19T15:19:38.196Z,100033.16
2023-05-19T15:22:11.411Z,100045.09
2023-05-19T15:24:42.742Z,100041.72
2023-05-19T15:27:15.199Z,100048.78
2023-05-19T15:29:47.600Z,100058.22
2023-05-19T15:34:46.534Z,100061.75
2023-05-19T15:37:16.496Z,100051.66
2023-05-19T15:39:46.176Z,100049.81
2023-05-19T15:42:15.843Z,100047.09
2023-05-19T15:44:47.946Z,100045.09
2023-05-19T15:47:17.709Z,100047.28
2023-05-19T15:49:53.857Z,100046.78
2023-05-19T15:52:26.271Z,100052.16
2023-05-19T15:54:56.808Z,100032.31
2023-05-19T15:57:26.829Z,100030.66
2023-05-19T15:59:56.892Z,100026.28
2023-05-19T16:02:27.058Z,100024.41
2023-05-19T16:04:56.793Z,100023.41
2023-05-19T16:07:26.434Z,100027.63
2023-05-19T16:10:15.747Z,100034.84
2023-05-19T16:12:48.861Z,100040.88
2023-05-19T16:15:18.611Z,100051.50
2023-05-19T16:17:48.307Z,100039.84
2023-05-19T16:20:22.749Z,100042.72
2023-05-19T16:22:52.447Z,100044.72
2023-05-19T16:25:22.333Z,100033.00
2023-05-19T16:27:52.397Z,100018.66
2023-05-19T16:30:26.027Z,100029.63
2023-05-19T16:32:56.313Z,100032.31
2023-05-19T16:35:26.078Z,100026.94
2023-05-19T16:37:55.801Z,100033.66
2023-05-19T16:40:30.951Z,100038.38
2023-05-19T16:43:00.854Z,100038.69
2023-05-19T16:45:30.644Z,100050.47
2023-05-19T16:48:02.907Z,100035.47
2023-05-19T16:50:33.239Z,100038.47
2023-05-19T16:53:03.306Z,100040.31
2023-05-19T16:55:48.818Z,100025.03
2023-05-19T16:58:18.489Z,100035.28
2023-05-19T17:00:50.836Z,100026.69
2023-05-19T17:03:20.906Z,100044.66
2023-05-19T17:05:50.951Z,100043.84
2023-05-19T17:08:23.345Z,100059.31
2023-05-19T17:10:53.399Z,100057.78
2023-05-19T17:13:23.138Z,100049.69
2023-05-19T17:15:56.935Z,100045.66
2023-05-19T17:18:29.686Z,100039.94
2023-05-19T17:21:00.875Z,100028.53
2023-05-19T17:23:47.756Z,100028.03
2023-05-19T17:26:21.054Z,100034.06
2023-05-19T17:28:51.127Z,100033.06
2023-05-19T17:31:23.554Z,100031.84
2023-05-19T17:33:53.417Z,100030.00
2023-05-19T17:36:26.166Z,100030.53
2023-05-19T17:38:55.763Z,100033.56
2023-05-19T17:41:25.564Z,100029.50
2023-05-19T17:43:55.221Z,100035.25
2023-05-19T17:46:24.941Z,100031.84
2023-05-19T17:48:54.693Z,100029.03
2023-05-19T17:51:24.575Z,100017.75
2023-05-19T17:53:54.574Z,100037.44
2023-05-19T17:56:30.807Z,100050.19
2023-05-19T17:59:00.788Z,100052.19
2023-05-19T18:01:30.742Z,100043.44
2023-05-19T18:04:20.447Z,100042.91
2023-05-19T18:06:50.660Z,100050.19
2023-05-19T18:09:27.158Z,100046.31
2023-05-19T18:11:58.775Z,100052.72
2023-05-19T18:14:31.245Z,100035.91
2023-05-19T18:17:02.735Z,100037.22
2023-05-19T18:19:32.433Z,100041.13
2023-05-19T18:22:04.911Z,100040.75
2023-05-19T18:24:34.609Z,100037.59
2023-05-19T18:27:04.834Z,100031.22
2023-05-19T18:29:36.375Z,100032.88
2023-05-19T18:32:06.292Z,100035.88
2023-05-19T18:34:36.151Z,100040.28
2023-05-19T18:37:05.917Z,100035.56
2023-05-19T18:39:35.677Z,100025.00
2023-05-19T18:42:20.464Z,100034.22
2023-05-19T18:44:49.979Z,100034.91
2023-05-19T18:47:24.307Z,100034.06
2023-05-19T18:49:56.653Z,100037.94
2023-05-19T18:52:28.185Z,100041.09
2023-05-19T18:54:58.049Z,100046.94
2023-05-19T18:57:28.051Z,100055.88
2023-05-19T19:00:08.000Z,100047.81
2023-05-19T19:02:37.871Z,100041.41
2023-05-19T19:05:11.083Z,100035.34
2023-05-19T19:07:44.708Z,100037.53
2023-05-19T19:10:15.070Z,100048.66
2023-05-19T19:13:00.897Z,100041.56
2023-05-19T19:15:39.339Z,100056.00
2023-05-19T19:18:12.175Z,100045.59
2023-05-19T19:20:41.971Z,100046.41
2023-05-19T19:23:14.328Z,100045.59
2023-05-19T19:25:44.030Z,100045.59
2023-05-19T19:28:13.681Z,100045.91
2023-05-19T19:30:43.391Z,100044.22
2023-05-19T19:33:13.487Z,100041.19
2023-05-19T19:35:45.680Z,100047.94
2023-05-19T19:38:15.748Z,100059.50
2023-05-19T19:40:45.422Z,100054.13
2023-05-19T19:43:15.074Z,100057.66
2023-05-19T19:45:44.953Z,100055.97
2023-05-19T19:48:34.325Z,100057.31
2023-05-19T19:51:04.008Z,100067.88
2023-05-19T19:53:36.880Z,100066.22
2023-05-19T19:56:07.760Z,100064.34
2023-05-19T19:58:38.506Z,100068.06
2023-05-19T20:01:09.461Z,100075.09
2023-05-19T20:03:39.569Z,100067.34
2023-05-19T20:06:09.524Z,100060.00
2023-05-19T20:08:39.335Z,100064.34
2023-05-19T20:11:31.434Z,100054.94
2023-05-19T20:14:01.144Z,100049.91
2023-05-19T20:16:30.966Z,100049.06
2023-05-19T20:19:00.769Z,100037.31
2023-05-19T20:21:30.467Z,100036.47
2023-05-19T20:24:00.353Z,100045.22
2023-05-19T20:26:49.698Z,100065.19
2023-05-19T20:29:19.792Z,100064.00
2023-05-19T20:31:49.523Z,100075.06
2023-05-19T20:34:19.215Z,100072.91
2023-05-19T20:36:50.496Z,100083.97
2023-05-19T20:39:22.864Z,100071.06
2023-05-19T20:41:52.560Z,100080.25
2023-05-19T20:44:22.250Z,100076.09
2023-05-19T20:46:53.055Z,100078.47
2023-05-19T20:49:25.924Z,100077.78
2023-05-19T20:51:55.864Z,100090.91
2023-05-19T20:54:25.522Z,100088.03
2023-05-19T20:56:55.172Z,100087.50
2023-05-19T20:59:24.794Z,100096.59
2023-05-19T21:01:54.508Z,100094.91
2023-05-19T21:04:43.986Z,100103.31
2023-05-19T21:07:17.114Z,100114.06
2023-05-19T21:09:49.535Z,100104.31
2023-05-19T21:12:21.236Z,100121.81
2023-05-19T21:14:51.567Z,100135.59
2023-05-19T21:17:22.705Z,100134.44
2023-05-19T21:20:02.471Z,100135.66
2023-05-19T21:22:37.137Z,100140.66
2023-05-19T21:25:10.384Z,100139.53
2023-05-19T21:27:41.099Z,100144.72
2023-05-19T21:30:11.285Z,100148.44
2023-05-19T21:32:43.802Z,100152.84
2023-05-19T21:35:13.567Z,100148.63
2023-05-19T21:37:43.256Z,100157.22
2023-05-19T21:40:13.391Z,100162.56
2023-05-19T21:42:43.068Z,100161.25
2023-05-19T21:45:13.229Z,100163.94
2023-05-19T21:47:42.890Z,100158.03
2023-05-19T21:50:17.120Z,100167.31
2023-05-19T21:52:50.129Z,100168.03
2023-05-19T21:55:19.803Z,100158.78
2023-05-19T21:57:49.602Z,100156.25
2023-05-19T22:00:19.485Z,100171.06
2023-05-19T22:02:49.297Z,100158.63
2023-05-19T22:05:19.217Z,100169.75
2023-05-19T22:07:49.695Z,100172.47
2023-05-19T22:10:19.400Z,100171.47
2023-05-19T22:12:49.096Z,100177.88
2023-05-19T22:15:20.146Z,100177.56
2023-05-19T22:17:49.844Z,100178.09
2023-05-19T22:20:19.537Z,100174.88
2023-05-19T22:22:49.602Z,100163.81
2023-05-19T22:25:25.869Z,100175.22
2023-05-19T22:27:56.381Z,100167.66
2023-05-19T22:30:26.561Z,100165.81
2023-05-19T22:32:57.134Z,100172.53
2023-05-19T22:35:29.795Z,100166.84
2023-05-19T22:38:02.478Z,100163.13
2023-05-19T22:40:35.076Z,100172.72
2023-05-19T22:43:07.526Z,100165.16
2023-05-19T22:45:54.252Z,100160.63
2023-05-19T22:48:26.723Z,100162.47
2023-05-19T22:50:56.545Z,100162.81
2023-05-19T22:53:26.326Z,100164.66
2023-05-19T22:55:56.102Z,100168.03
2023-05-19T22:58:28.632Z,100168.56
2023-05-19T23:01:01.555Z,100179.66
2023-05-19T23:03:31.337Z,100182.84
2023-05-19T23:06:00.976Z,100176.31
2023-05-19T23:08:30.667Z,100169.59
2023-05-19T23:11:03.852Z,100165.91
2023-05-19T23:13:33.723Z,100161.69
2023-05-19T23:16:04.237Z,100149.75
2023-05-19T23:18:34.114Z,100142.38
2023-05-19T23:21:03.732Z,100140.00
2023-05-19T23:23:49.595Z,100127.22
2023-05-19T23:26:21.798Z,100120.50
2023-05-19T23:28:52.099Z,100113.41
2023-05-19T23:31:24.566Z,100118.31
2023-05-19T23:33:54.797Z,100123.19
2023-05-19T23:36:26.104Z,100121.16
2023-05-19T23:39:02.768Z,100113.06
2023-05-19T23:41:32.990Z,100111.25
2023-05-19T23:44:02.843Z,100113.75
2023-05-19T23:46:32.658Z,100107.00
2023-05-19T23:49:02.498Z,100104.81
2023-05-19T23:51:32.849Z,100097.75
2023-05-19T23:54:02.575Z,100090.34
2023-05-19T23:56:32.335Z,100096.56
2023-05-19T23:59:02.404Z,100095.91
